createdAt,value
2017-08-10T00:00:14.611Z,99.99
2017-08-10T00:01:14.516Z,99.99
2017-08-10T00:02:14.525Z,99.99
2017-08-10T00:03:14.546Z,99.99
2017-08-10T00:04:14.567Z,99.99
2017-08-10T00:05:14.606Z,99.75
2017-08-10T00:06:14.549Z,99.64
2017-08-10T00:07:14.608Z,99.48
2017-08-10T00:08:14.555Z,99.32
2017-08-10T00:09:14.523Z,99.02
2017-08-10T00:10:14.522Z,98.99
2017-08-10T00:11:14.522Z,99.02
2017-08-10T00:12:14.607Z,98.91
2017-08-10T00:13:14.621Z,98.80
2017-08-10T00:14:14.543Z,98.45
2017-08-10T00:15:14.520Z,98.18
2017-08-10T00:16:14.520Z,98.02
2017-08-10T00:17:14.571Z,97.91
2017-08-10T00:18:14.527Z,97.93
2017-08-10T00:19:14.542Z,97.69
2017-08-10T00:20:14.595Z,97.83
2017-08-10T00:21:14.561Z,97.36
2017-08-10T00:22:14.529Z,97.23
2017-08-10T00:23:14.619Z,97.99
2017-08-10T00:24:14.613Z,98.02
2017-08-10T00:25:14.593Z,97.88
2017-08-10T00:26:14.618Z,98.10
2017-08-10T00:27:14.534Z,98.10
2017-08-10T00:28:14.553Z,97.99
2017-08-10T00:29:14.584Z,97.99
2017-08-10T00:30:14.522Z,97.77
2017-08-10T00:31:14.551Z,97.83
2017-08-10T00:32:14.592Z,97.80
2017-08-10T00:33:14.585Z,97.77
2017-08-10T00:34:14.520Z,97.99
2017-08-10T00:35:14.527Z,98.31
2017-08-10T00:36:14.594Z,98.26
2017-08-10T00:37:14.593Z,98.23
2017-08-10T00:38:14.611Z,98.12
2017-08-10T00:39:14.542Z,98.10
2017-08-10T00:40:14.562Z,98.12
2017-08-10T00:41:14.537Z,98.12
2017-08-10T00:42:14.560Z,98.12
2017-08-10T00:43:14.545Z,97.74
2017-08-10T00:44:14.595Z,97.42
2017-08-10T00:45:14.571Z,97.58
2017-08-10T00:46:14.631Z,97.88
2017-08-10T00:47:14.664Z,98.45
2017-08-10T00:48:14.566Z,98.75
2017-08-10T00:49:14.631Z,98.77
2017-08-10T00:50:14.639Z,98.69
2017-08-10T00:51:14.546Z,98.55
2017-08-10T00:52:14.546Z,98.40
2017-08-10T00:53:14.642Z,98.59
2017-08-10T00:54:14.580Z,98.66
2017-08-10T00:55:14.546Z,98.66
2017-08-10T00:56:14.614Z,98.50
2017-08-10T00:57:14.574Z,98.45
2017-08-10T00:58:14.582Z,98.55
2017-08-10T00:59:14.616Z,98.64
2017-08-10T01:00:14.578Z,98.66
2017-08-10T01:01:14.619Z,98.59
2017-08-10T01:02:14.616Z,98.55
2017-08-10T01:03:14.611Z,98.66
2017-08-10T01:04:14.583Z,98.69
2017-08-10T01:05:14.619Z,98.53
2017-08-10T01:06:14.645Z,98.59
2017-08-10T01:07:14.552Z,98.80
2017-08-10T01:08:14.572Z,98.91
2017-08-10T01:09:14.549Z,98.94
2017-08-10T01:10:14.608Z,98.94
2017-08-10T01:11:14.548Z,99.02
2017-08-10T01:12:14.550Z,98.96
2017-08-10T01:13:14.553Z,99.10
2017-08-10T01:14:14.546Z,99.23
2017-08-10T01:15:14.615Z,99.37
2017-08-10T01:16:14.551Z,99.34
2017-08-10T01:17:14.555Z,99.37
2017-08-10T01:18:14.591Z,99.40
2017-08-10T01:19:14.599Z,99.45
2017-08-10T01:20:14.561Z,99.70
2017-08-10T01:21:14.591Z,99.59
2017-08-10T01:22:14.582Z,99.51
2017-08-10T01:23:14.631Z,99.34
2017-08-10T01:24:14.624Z,99.34
2017-08-10T01:25:14.596Z,99.40
2017-08-10T01:26:14.595Z,99.37
2017-08-10T01:27:14.563Z,99.32
2017-08-10T01:28:14.560Z,99.45
2017-08-10T01:29:14.594Z,99.40
2017-08-10T01:30:14.624Z,99.23
2017-08-10T01:31:14.636Z,99.13
2017-08-10T01:32:14.594Z,98.94
2017-08-10T01:33:14.618Z,99.13
2017-08-10T01:34:14.602Z,99.40
2017-08-10T01:35:14.647Z,99.48
2017-08-10T01:36:14.620Z,99.34
2017-08-10T01:37:14.621Z,99.15
2017-08-10T01:38:14.621Z,98.99
2017-08-10T01:39:14.635Z,98.88
2017-08-10T01:40:14.580Z,98.80
2017-08-10T01:41:14.567Z,98.99
2017-08-10T01:42:14.605Z,99.23
2017-08-10T01:43:14.577Z,99.53
2017-08-10T01:44:14.602Z,99.59
2017-08-10T01:45:14.577Z,99.37
2017-08-10T01:46:14.612Z,98.59
2017-08-10T01:47:14.634Z,98.31
2017-08-10T01:48:14.629Z,98.40
2017-08-10T01:49:14.628Z,98.53
2017-08-10T01:50:14.633Z,98.55
2017-08-10T01:51:14.566Z,98.61
2017-08-10T01:52:14.628Z,98.48
2017-08-10T01:53:14.596Z,98.26
2017-08-10T01:54:14.568Z,97.69
2017-08-10T01:55:14.577Z,97.50
2017-08-10T01:56:14.570Z,97.31
2017-08-10T01:57:14.574Z,97.23
2017-08-10T01:58:14.712Z,97.66
2017-08-10T01:59:14.579Z,97.88
2017-08-10T02:00:14.522Z,98.40
2017-08-10T02:01:14.594Z,98.45
2017-08-10T02:02:14.598Z,98.48
2017-08-10T02:03:14.528Z,98.80
2017-08-10T02:04:14.580Z,98.88
2017-08-10T02:05:14.634Z,99.15
2017-08-10T02:06:14.573Z,99.48
2017-08-10T02:07:14.590Z,99.75
2017-08-10T02:08:14.683Z,99.70
2017-08-10T02:09:14.674Z,99.29
2017-08-10T02:10:14.645Z,99.15
2017-08-10T02:11:14.610Z,99.21
2017-08-10T02:12:14.594Z,99.37
2017-08-10T02:13:14.622Z,99.40
2017-08-10T02:14:14.685Z,99.07
2017-08-10T02:15:14.625Z,99.13
2017-08-10T02:16:14.597Z,99.34
2017-08-10T02:17:14.627Z,99.99
2017-08-10T02:18:14.600Z,99.99
2017-08-10T02:19:14.681Z,99.99
2017-08-10T02:20:14.594Z,99.99
2017-08-10T02:21:14.700Z,99.86
2017-08-10T02:22:14.662Z,99.99
2017-08-10T02:23:14.592Z,99.99
2017-08-10T02:24:14.691Z,99.99
2017-08-10T02:25:14.657Z,99.99
2017-08-10T02:26:14.634Z,99.99
2017-08-10T02:27:14.683Z,99.99
2017-08-10T02:28:14.627Z,99.99
2017-08-10T02:29:14.637Z,99.99
2017-08-10T02:30:14.689Z,99.99
2017-08-10T02:31:14.689Z,99.99
2017-08-10T02:32:14.694Z,99.99
2017-08-10T02:33:14.688Z,99.99
2017-08-10T02:34:14.642Z,99.99
2017-08-10T02:35:14.659Z,99.99
2017-08-10T02:36:14.635Z,99.99
2017-08-10T02:37:14.608Z,99.99
2017-08-10T02:38:14.509Z,99.99
2017-08-10T02:39:14.592Z,99.99
2017-08-10T02:40:14.591Z,99.99
2017-08-10T02:41:14.598Z,99.99
2017-08-10T02:42:14.513Z,99.99
2017-08-10T02:43:14.557Z,99.99
2017-08-10T02:44:14.594Z,99.99
2017-08-10T02:45:14.593Z,99.99
2017-08-10T02:46:14.514Z,99.99
2017-08-10T02:47:14.559Z,99.99
2017-08-10T02:48:14.633Z,99.99
2017-08-10T02:49:14.664Z,99.99
2017-08-10T02:50:14.675Z,99.99
2017-08-10T02:51:14.662Z,99.99
2017-08-10T02:52:14.667Z,99.99
2017-08-10T02:53:14.664Z,99.99
2017-08-10T02:54:14.663Z,99.99
2017-08-10T02:55:14.605Z,99.99
2017-08-10T02:56:14.671Z,99.99
2017-08-10T02:57:14.611Z,99.99
2017-08-10T02:58:14.619Z,99.99
2017-08-10T02:59:14.649Z,99.99
2017-08-10T03:00:14.653Z,99.99
2017-08-10T03:01:14.686Z,99.99
2017-08-10T03:02:14.675Z,99.99
2017-08-10T03:03:14.622Z,99.99
2017-08-10T03:04:14.688Z,99.99
2017-08-10T03:05:14.653Z,99.99
2017-08-10T03:06:14.655Z,99.99
2017-08-10T03:07:14.656Z,99.99
2017-08-10T03:08:14.688Z,99.99
2017-08-10T03:09:14.691Z,99.99
2017-08-10T03:10:14.675Z,99.99
2017-08-10T03:11:14.718Z,99.99
2017-08-10T03:12:14.633Z,99.99
2017-08-10T03:13:14.687Z,99.99
2017-08-10T03:14:14.655Z,99.99
2017-08-10T03:15:14.625Z,99.99
2017-08-10T03:16:14.695Z,99.99
2017-08-10T03:17:14.657Z,99.99
2017-08-10T03:18:14.652Z,99.99
2017-08-10T03:19:14.625Z,99.99
2017-08-10T03:20:14.683Z,99.99
2017-08-10T03:21:14.682Z,99.99
2017-08-10T03:22:14.653Z,99.99
2017-08-10T03:23:14.689Z,99.99
2017-08-10T03:24:14.652Z,99.99
2017-08-10T03:25:14.657Z,99.99
2017-08-10T03:26:14.654Z,99.99
2017-08-10T03:27:14.685Z,99.99
2017-08-10T03:28:14.659Z,99.99
2017-08-10T03:29:14.598Z,99.99
2017-08-10T03:30:14.634Z,99.99
2017-08-10T03:31:14.606Z,99.99
2017-08-10T03:32:14.660Z,99.99
2017-08-10T03:33:14.584Z,99.99
2017-08-10T03:34:14.658Z,99.99
2017-08-10T03:35:14.668Z,99.99
2017-08-10T03:36:14.618Z,99.99
2017-08-10T03:37:14.636Z,99.99
2017-08-10T03:38:14.693Z,99.99
2017-08-10T03:39:14.659Z,99.99
2017-08-10T03:40:14.696Z,99.99
2017-08-10T03:41:14.628Z,99.99
2017-08-10T03:42:14.696Z,99.99
2017-08-10T03:43:14.696Z,99.99
2017-08-10T03:44:14.662Z,99.99
2017-08-10T03:45:14.694Z,99.99
2017-08-10T03:46:14.663Z,99.99
2017-08-10T03:47:14.640Z,99.99
2017-08-10T03:48:14.660Z,99.99
2017-08-10T03:49:14.737Z,99.99
2017-08-10T03:50:14.732Z,99.99
2017-08-10T03:51:14.648Z,99.99
2017-08-10T03:52:14.677Z,99.99
2017-08-10T03:53:14.698Z,99.99
2017-08-10T03:54:14.653Z,99.99
2017-08-10T03:55:14.651Z,99.99
2017-08-10T03:56:14.646Z,99.99
2017-08-10T03:57:14.672Z,99.99
2017-08-10T03:58:14.685Z,99.99
2017-08-10T03:59:14.622Z,99.99
2017-08-10T04:00:14.660Z,99.99
2017-08-10T04:01:14.625Z,99.99
2017-08-10T04:02:14.677Z,99.99
2017-08-10T04:03:14.655Z,99.99
2017-08-10T04:04:14.623Z,99.99
2017-08-10T04:05:14.641Z,99.99
2017-08-10T04:06:14.651Z,99.99
2017-08-10T04:07:14.721Z,99.99
2017-08-10T04:08:14.676Z,99.99
2017-08-10T04:09:14.594Z,99.99
2017-08-10T04:10:14.706Z,99.99
2017-08-10T04:11:14.672Z,99.99
2017-08-10T04:12:14.668Z,99.99
2017-08-10T04:13:14.652Z,99.99
2017-08-10T04:14:14.639Z,99.99
2017-08-10T04:15:14.642Z,99.99
2017-08-10T04:16:14.676Z,99.99
2017-08-10T04:17:14.628Z,99.99
2017-08-10T04:18:14.597Z,99.99
2017-08-10T04:19:14.734Z,99.99
2017-08-10T04:20:14.694Z,99.99
2017-08-10T04:21:14.663Z,99.99
2017-08-10T04:22:14.741Z,99.99
2017-08-10T04:23:14.695Z,99.99
2017-08-10T04:24:14.669Z,99.99
2017-08-10T04:25:14.691Z,99.99
2017-08-10T04:26:14.703Z,99.99
2017-08-10T04:27:14.698Z,99.99
2017-08-10T04:28:14.691Z,99.99
2017-08-10T04:29:14.691Z,99.99
2017-08-10T04:30:14.726Z,99.99
2017-08-10T04:31:14.693Z,99.99
2017-08-10T04:32:14.694Z,99.99
2017-08-10T04:33:14.692Z,99.99
2017-08-10T04:34:14.732Z,99.99
2017-08-10T04:35:14.661Z,99.99
2017-08-10T04:36:14.671Z,99.99
2017-08-10T04:37:14.732Z,99.99
2017-08-10T04:38:14.720Z,99.99
2017-08-10T04:39:14.668Z,99.99
2017-08-10T04:40:14.674Z,99.99
2017-08-10T04:41:14.670Z,99.99
2017-08-10T04:42:14.704Z,99.99
2017-08-10T04:43:14.731Z,99.99
2017-08-10T04:44:14.737Z,99.99
2017-08-10T04:45:14.705Z,99.99
2017-08-10T04:46:14.740Z,99.99
2017-08-10T04:47:14.734Z,99.99
2017-08-10T04:48:14.731Z,99.99
2017-08-10T04:49:14.660Z,99.99
2017-08-10T04:50:14.693Z,99.99
2017-08-10T04:51:14.700Z,99.99
2017-08-10T04:52:14.687Z,99.99
2017-08-10T04:53:14.677Z,99.99
2017-08-10T04:54:14.701Z,99.99
2017-08-10T04:55:14.676Z,99.99
2017-08-10T04:56:14.681Z,99.99
2017-08-10T04:57:14.748Z,99.99
2017-08-10T04:58:14.707Z,99.99
2017-08-10T04:59:14.689Z,99.99
2017-08-10T05:00:14.719Z,99.99
2017-08-10T05:01:14.720Z,99.99
2017-08-10T05:02:14.763Z,99.99
2017-08-10T05:03:14.743Z,99.99
2017-08-10T05:04:14.721Z,99.99
2017-08-10T05:05:14.721Z,99.99
2017-08-10T05:06:14.707Z,99.99
2017-08-10T05:07:14.777Z,99.99
2017-08-10T05:08:14.713Z,99.99
2017-08-10T05:09:14.685Z,99.99
2017-08-10T05:10:14.783Z,99.99
2017-08-10T05:11:14.719Z,99.99
2017-08-10T05:12:14.784Z,99.99
2017-08-10T05:13:14.729Z,99.99
2017-08-10T05:14:14.721Z,99.99
2017-08-10T05:15:14.697Z,99.99
2017-08-10T05:16:14.787Z,99.99
2017-08-10T05:17:14.719Z,99.99
2017-08-10T05:18:14.734Z,99.99
2017-08-10T05:19:14.749Z,99.99
2017-08-10T05:20:14.677Z,99.99
2017-08-10T05:21:14.709Z,99.99
2017-08-10T05:22:14.633Z,99.99
2017-08-10T05:23:14.710Z,99.99
2017-08-10T05:24:14.714Z,99.99
2017-08-10T05:25:14.634Z,99.99
2017-08-10T05:26:14.747Z,99.99
2017-08-10T05:27:14.695Z,99.99
2017-08-10T05:28:14.718Z,99.99
2017-08-10T05:29:14.775Z,99.99
2017-08-10T05:30:14.758Z,99.99
2017-08-10T05:31:14.775Z,99.99
2017-08-10T05:32:14.775Z,99.99
2017-08-10T05:33:14.739Z,99.99
2017-08-10T05:34:14.767Z,99.99
2017-08-10T05:35:14.779Z,99.99
2017-08-10T05:36:14.730Z,99.99
2017-08-10T05:37:14.745Z,99.99
2017-08-10T05:38:14.780Z,99.99
2017-08-10T05:39:14.726Z,99.99
2017-08-10T05:40:14.729Z,99.99
2017-08-10T05:41:14.778Z,99.99
2017-08-10T05:42:14.785Z,99.99
2017-08-10T05:43:14.798Z,99.99
2017-08-10T05:44:14.762Z,99.99
2017-08-10T05:45:14.800Z,99.99
2017-08-10T05:46:14.798Z,99.99
2017-08-10T05:47:14.778Z,99.99
2017-08-10T05:48:14.799Z,99.99
2017-08-10T05:49:14.775Z,99.99
2017-08-10T05:50:14.719Z,99.99
2017-08-10T05:51:14.714Z,99.99
2017-08-10T05:52:14.747Z,99.99
2017-08-10T05:53:14.723Z,99.99
2017-08-10T05:54:14.782Z,99.99
2017-08-10T05:55:14.785Z,99.99
2017-08-10T05:56:14.772Z,99.99
2017-08-10T05:57:14.778Z,99.99
2017-08-10T05:58:14.777Z,99.99
2017-08-10T05:59:14.808Z,99.99
2017-08-10T06:00:14.718Z,99.99
2017-08-10T06:01:14.759Z,99.99
2017-08-10T06:02:14.722Z,99.99
2017-08-10T06:03:14.788Z,99.99
2017-08-10T06:04:14.759Z,99.99
2017-08-10T06:05:14.797Z,99.99
2017-08-10T06:06:14.764Z,99.99
2017-08-10T06:07:14.789Z,99.99
2017-08-10T06:08:14.728Z,99.99
2017-08-10T06:09:14.741Z,99.99
2017-08-10T06:10:14.704Z,99.99
2017-08-10T06:11:14.788Z,99.99
2017-08-10T06:12:14.728Z,99.99
2017-08-10T06:13:14.869Z,99.99
2017-08-10T06:14:14.724Z,99.99
2017-08-10T06:15:14.790Z,99.99
2017-08-10T06:16:14.759Z,99.99
2017-08-10T06:17:14.735Z,99.99
2017-08-10T06:18:14.728Z,99.99
2017-08-10T06:19:14.734Z,99.99
2017-08-10T06:20:14.762Z,99.99
2017-08-10T06:21:14.762Z,99.99
2017-08-10T06:22:14.766Z,99.99
2017-08-10T06:23:14.761Z,99.99
2017-08-10T06:24:14.803Z,99.99
2017-08-10T06:25:14.737Z,99.99
2017-08-10T06:26:14.773Z,99.99
2017-08-10T06:27:14.772Z,99.99
2017-08-10T06:28:14.738Z,99.99
2017-08-10T06:29:14.762Z,99.99
2017-08-10T06:30:14.740Z,99.99
2017-08-10T06:31:14.829Z,99.99
2017-08-10T06:32:14.775Z,99.99
2017-08-10T06:33:14.795Z,99.99
2017-08-10T06:34:14.760Z,99.99
2017-08-10T06:35:14.813Z,99.99
2017-08-10T06:36:14.808Z,99.99
2017-08-10T06:37:14.782Z,99.99
2017-08-10T06:38:14.746Z,99.99
2017-08-10T06:39:14.844Z,99.99
2017-08-10T06:40:14.779Z,99.99
2017-08-10T06:41:14.832Z,99.99
2017-08-10T06:42:14.750Z,99.99
2017-08-10T06:43:14.781Z,99.99
2017-08-10T06:44:14.752Z,99.99
2017-08-10T06:45:14.754Z,99.99
2017-08-10T06:46:14.746Z,99.99
2017-08-10T06:47:14.801Z,99.99
2017-08-10T06:48:14.783Z,99.99
2017-08-10T06:49:14.739Z,99.99
2017-08-10T06:50:14.800Z,99.99
2017-08-10T06:51:14.822Z,99.99
2017-08-10T06:52:14.801Z,99.99
2017-08-10T06:53:14.799Z,99.99
2017-08-10T06:54:14.740Z,99.99
2017-08-10T06:55:14.773Z,99.99
2017-08-10T06:56:14.774Z,99.99
2017-08-10T06:58:14.807Z,99.99
2017-08-10T06:59:14.844Z,99.99
2017-08-10T07:00:14.758Z,99.99
2017-08-10T07:01:14.827Z,99.99
2017-08-10T07:02:14.812Z,99.99
2017-08-10T07:03:14.811Z,99.99
2017-08-10T07:04:14.782Z,99.99
2017-08-10T07:05:14.780Z,99.99
2017-08-10T07:06:14.831Z,99.99
2017-08-10T07:07:14.885Z,99.99
2017-08-10T07:08:14.782Z,99.99
2017-08-10T07:09:14.771Z,99.99
2017-08-10T07:10:14.776Z,99.99
2017-08-10T07:11:14.742Z,99.99
2017-08-10T07:12:14.817Z,99.99
2017-08-10T07:13:14.759Z,99.99
2017-08-10T07:14:14.758Z,99.99
2017-08-10T07:15:14.790Z,99.86
2017-08-10T07:16:14.788Z,99.59
2017-08-10T07:17:14.785Z,99.99
2017-08-10T07:18:14.773Z,99.99
2017-08-10T07:19:14.743Z,99.99
2017-08-10T07:20:14.774Z,99.99
2017-08-10T07:21:14.820Z,99.99
2017-08-10T07:22:14.787Z,99.99
2017-08-10T07:23:14.792Z,99.99
2017-08-10T07:24:14.829Z,99.99
2017-08-10T07:25:14.791Z,99.99
2017-08-10T07:26:14.790Z,99.99
2017-08-10T07:27:14.768Z,99.99
2017-08-10T07:28:14.792Z,99.99
2017-08-10T07:29:14.823Z,99.75
2017-08-10T07:30:14.779Z,98.96
2017-08-10T07:31:14.805Z,99.34
2017-08-10T07:32:14.779Z,99.83
2017-08-10T07:33:14.793Z,99.99
2017-08-10T07:34:14.787Z,99.99
2017-08-10T07:35:14.818Z,99.99
2017-08-10T07:36:14.811Z,99.99
2017-08-10T07:37:14.834Z,99.99
2017-08-10T07:38:14.851Z,99.99
2017-08-10T07:39:14.812Z,99.99
2017-08-10T07:40:14.867Z,97.93
2017-08-10T07:41:14.875Z,97.74
2017-08-10T07:42:14.780Z,98.85
2017-08-10T07:43:14.843Z,95.56
2017-08-10T07:44:14.844Z,94.72
2017-08-10T07:45:14.785Z,93.59
2017-08-10T07:46:14.818Z,94.07
2017-08-10T07:47:14.844Z,93.43
2017-08-10T07:48:14.851Z,93.59
2017-08-10T07:49:14.782Z,93.51
2017-08-10T07:50:14.841Z,94.42
2017-08-10T07:51:14.815Z,94.56
2017-08-10T07:52:14.875Z,94.83
2017-08-10T07:53:14.813Z,96.17
2017-08-10T07:54:14.878Z,95.66
2017-08-10T07:55:14.840Z,96.23
2017-08-10T07:56:14.787Z,97.23
2017-08-10T07:57:14.849Z,94.15
2017-08-10T07:58:14.807Z,95.31
2017-08-10T07:59:14.795Z,96.17
2017-08-10T08:00:14.858Z,97.12
2017-08-10T08:01:14.878Z,98.29
2017-08-10T08:02:14.830Z,97.45
2017-08-10T08:03:14.851Z,96.07
2017-08-10T08:04:14.796Z,95.75
2017-08-10T08:05:14.866Z,97.10
2017-08-10T08:06:14.834Z,97.64
2017-08-10T08:07:14.888Z,95.61
2017-08-10T08:08:14.850Z,94.56
2017-08-10T08:09:14.792Z,93.43
2017-08-10T08:10:14.790Z,94.40
2017-08-10T08:11:14.851Z,94.56
2017-08-10T08:12:14.819Z,94.37
2017-08-10T08:13:14.853Z,94.37
2017-08-10T08:14:14.835Z,96.17
2017-08-10T08:15:14.792Z,94.37
2017-08-10T08:16:14.825Z,93.51
2017-08-10T08:17:14.819Z,94.04
2017-08-10T08:18:14.785Z,93.56
2017-08-10T08:19:14.859Z,94.64
2017-08-10T08:20:14.770Z,94.12
2017-08-10T08:21:14.774Z,94.34
2017-08-10T08:22:14.773Z,94.83
2017-08-10T08:23:14.825Z,96.04
2017-08-10T08:24:14.827Z,94.69
2017-08-10T08:25:14.782Z,93.51
2017-08-10T08:26:14.863Z,93.10
2017-08-10T08:27:14.809Z,92.05
2017-08-10T08:28:14.758Z,93.75
2017-08-10T08:29:14.802Z,93.32
2017-08-10T08:30:14.839Z,90.63
2017-08-10T08:31:14.849Z,92.03
2017-08-10T08:32:14.811Z,91.95
2017-08-10T08:33:14.865Z,92.73
2017-08-10T08:34:14.839Z,95.07
2017-08-10T08:35:14.844Z,94.21
2017-08-10T08:36:14.905Z,95.42
2017-08-10T08:37:14.817Z,93.51
2017-08-10T08:38:14.903Z,94.29
2017-08-10T08:39:14.850Z,95.20
2017-08-10T08:40:14.803Z,95.34
2017-08-10T08:41:14.876Z,92.95
2017-08-10T08:42:14.874Z,92.59
2017-08-10T08:43:14.840Z,91.49
2017-08-10T08:44:14.866Z,90.90
2017-08-10T08:45:14.812Z,94.34
2017-08-10T08:46:14.808Z,93.05
2017-08-10T08:47:14.879Z,91.38
2017-08-10T08:48:14.839Z,91.01
2017-08-10T08:49:14.813Z,90.74
2017-08-10T08:50:14.846Z,91.44
2017-08-10T08:51:14.873Z,92.19
2017-08-10T08:52:14.800Z,91.47
2017-08-10T08:53:14.841Z,93.62
2017-08-10T08:54:14.814Z,92.43
2017-08-10T08:55:14.846Z,92.97
2017-08-10T08:56:14.878Z,92.54
2017-08-10T08:57:14.883Z,91.90
2017-08-10T08:58:14.815Z,89.37
2017-08-10T08:59:14.822Z,91.55
2017-08-10T09:00:14.820Z,90.53
2017-08-10T09:01:14.792Z,92.62
2017-08-10T09:02:14.835Z,91.20
2017-08-10T09:03:14.790Z,91.71
2017-08-10T09:04:14.791Z,90.80
2017-08-10T09:05:14.756Z,92.32
2017-08-10T09:06:14.788Z,91.63
2017-08-10T09:07:14.934Z,90.88
2017-08-10T09:08:14.799Z,91.68
2017-08-10T09:09:14.807Z,91.30
2017-08-10T09:10:14.899Z,91.52
2017-08-10T09:11:14.893Z,91.86
2017-08-10T09:12:14.854Z,92.27
2017-08-10T09:13:14.868Z,92.49
2017-08-10T09:14:14.907Z,94.18
2017-08-10T09:15:14.888Z,94.50
2017-08-10T09:16:14.896Z,95.58
2017-08-10T09:17:14.908Z,94.15
2017-08-10T09:18:14.890Z,93.26
2017-08-10T09:19:14.838Z,92.62
2017-08-10T09:20:14.932Z,93.43
2017-08-10T09:21:14.909Z,93.56
2017-08-10T09:22:14.907Z,94.12
2017-08-10T09:23:14.936Z,94.50
2017-08-10T09:24:14.904Z,94.91
2017-08-10T09:25:14.844Z,93.85
2017-08-10T09:26:14.859Z,93.37
2017-08-10T09:27:14.914Z,92.57
2017-08-10T09:28:14.914Z,91.63
2017-08-10T09:29:14.981Z,91.25
2017-08-10T09:30:14.813Z,92.65
2017-08-10T09:31:14.872Z,92.65
2017-08-10T09:32:14.843Z,93.37
2017-08-10T09:33:14.869Z,91.65
2017-08-10T09:34:14.878Z,91.09
2017-08-10T09:35:14.841Z,90.07
2017-08-10T09:36:14.873Z,88.68
2017-08-10T09:37:14.849Z,88.89
2017-08-10T09:38:14.842Z,88.25
2017-08-10T09:39:14.816Z,86.91
2017-08-10T09:40:14.827Z,88.50
2017-08-10T09:41:14.916Z,88.07
2017-08-10T09:42:14.844Z,89.22
2017-08-10T09:43:14.852Z,89.11
2017-08-10T09:44:14.822Z,87.61
2017-08-10T09:45:14.869Z,88.12
2017-08-10T09:46:14.881Z,88.28
2017-08-10T09:47:14.855Z,87.74
2017-08-10T09:48:14.870Z,87.69
2017-08-10T09:49:14.876Z,88.79
2017-08-10T09:50:14.858Z,83.65
2017-08-10T09:51:14.915Z,83.86
2017-08-10T09:52:14.854Z,84.92
2017-08-10T09:53:14.866Z,87.96
2017-08-10T09:54:14.882Z,87.85
2017-08-10T09:55:14.877Z,85.88
2017-08-10T09:56:14.881Z,88.89
2017-08-10T09:57:14.881Z,88.52
2017-08-10T09:58:14.854Z,90.66
2017-08-10T09:59:14.871Z,87.56
2017-08-10T10:00:14.889Z,83.94
2017-08-10T10:01:14.897Z,83.94
2017-08-10T10:02:14.949Z,84.47
2017-08-10T10:03:14.880Z,86.04
2017-08-10T10:04:14.899Z,86.97
2017-08-10T10:05:14.900Z,86.97
2017-08-10T10:06:14.921Z,86.33
2017-08-10T10:07:14.862Z,87.24
2017-08-10T10:08:14.936Z,86.91
2017-08-10T10:09:14.885Z,86.22
2017-08-10T10:10:14.920Z,84.34
2017-08-10T10:11:14.887Z,85.88
2017-08-10T10:12:14.849Z,85.24
2017-08-10T10:13:14.887Z,87.69
2017-08-10T10:14:14.889Z,88.57
2017-08-10T10:15:14.892Z,86.38
2017-08-10T10:16:14.926Z,86.33
2017-08-10T10:17:14.856Z,85.03
2017-08-10T10:18:14.925Z,87.08
2017-08-10T10:19:14.924Z,88.36
2017-08-10T10:20:14.892Z,88.81
2017-08-10T10:21:14.909Z,85.56
2017-08-10T10:22:14.893Z,85.48
2017-08-10T10:23:14.888Z,82.72
2017-08-10T10:24:14.924Z,83.38
2017-08-10T10:25:14.927Z,85.19
2017-08-10T10:26:14.928Z,84.87
2017-08-10T10:27:14.862Z,86.01
2017-08-10T10:28:14.868Z,83.49
2017-08-10T10:29:14.900Z,85.88
2017-08-10T10:30:14.975Z,86.09
2017-08-10T10:31:14.904Z,86.38
2017-08-10T10:32:14.878Z,85.32
2017-08-10T10:33:14.954Z,85.27
2017-08-10T10:34:14.968Z,84.47
2017-08-10T10:35:14.903Z,84.15
2017-08-10T10:36:14.888Z,84.74
2017-08-10T10:37:14.885Z,86.41
2017-08-10T10:38:14.940Z,82.85
2017-08-10T10:39:14.919Z,86.01
2017-08-10T10:40:14.888Z,83.30
2017-08-10T10:41:14.793Z,85.35
2017-08-10T10:42:14.880Z,84.71
2017-08-10T10:43:14.880Z,84.02
2017-08-10T10:44:14.886Z,85.88
2017-08-10T10:45:14.888Z,85.35
2017-08-10T10:46:14.878Z,86.79
2017-08-10T10:47:14.903Z,84.68
2017-08-10T10:48:14.883Z,83.06
2017-08-10T10:49:14.859Z,86.41
2017-08-10T10:50:14.902Z,83.04
2017-08-10T10:51:14.867Z,83.28
2017-08-10T10:52:14.893Z,84.26
2017-08-10T10:53:14.826Z,84.66
2017-08-10T10:54:14.908Z,84.44
2017-08-10T10:55:14.887Z,85.35
2017-08-10T10:56:14.905Z,84.44
2017-08-10T10:57:14.892Z,82.51
2017-08-10T10:58:14.891Z,82.75
2017-08-10T10:59:14.942Z,83.44
2017-08-10T11:00:14.932Z,82.67
2017-08-10T11:01:14.899Z,82.51
2017-08-10T11:02:14.899Z,81.84
2017-08-10T11:03:14.900Z,81.82
2017-08-10T11:04:14.983Z,80.94
2017-08-10T11:05:14.960Z,81.00
2017-08-10T11:06:14.954Z,81.16
2017-08-10T11:07:14.927Z,81.90
2017-08-10T11:08:14.900Z,82.48
2017-08-10T11:09:14.972Z,84.17
2017-08-10T11:10:14.936Z,86.09
2017-08-10T11:11:14.941Z,85.03
2017-08-10T11:12:14.921Z,82.51
2017-08-10T11:13:14.938Z,83.12
2017-08-10T11:14:14.997Z,84.17
2017-08-10T11:15:14.966Z,83.62
2017-08-10T11:16:14.970Z,83.28
2017-08-10T11:17:14.904Z,82.35
2017-08-10T11:18:14.966Z,82.16
2017-08-10T11:19:14.906Z,81.71
2017-08-10T11:20:14.938Z,82.64
2017-08-10T11:21:14.905Z,81.95
2017-08-10T11:22:14.934Z,83.12
2017-08-10T11:23:14.934Z,82.43
2017-08-10T11:24:14.929Z,84.05
2017-08-10T11:25:14.899Z,83.46
2017-08-10T11:26:14.970Z,83.01
2017-08-10T11:27:14.905Z,81.58
2017-08-10T11:28:14.966Z,83.09
2017-08-10T11:29:14.965Z,84.81
2017-08-10T11:30:14.932Z,83.28
2017-08-10T11:31:14.978Z,83.67
2017-08-10T11:32:14.968Z,81.50
2017-08-10T11:33:14.917Z,82.27
2017-08-10T11:34:14.950Z,84.09
2017-08-10T11:35:15.001Z,83.65
2017-08-10T11:36:14.971Z,84.84
2017-08-10T11:37:14.950Z,82.19
2017-08-10T11:38:14.991Z,82.69
2017-08-10T11:39:15.012Z,81.58
2017-08-10T11:40:14.953Z,82.82
2017-08-10T11:41:14.919Z,82.69
2017-08-10T11:42:14.920Z,83.91
2017-08-10T11:43:15.017Z,83.36
2017-08-10T11:44:14.950Z,85.38
2017-08-10T11:45:14.961Z,81.29
2017-08-10T11:46:14.925Z,83.36
2017-08-10T11:47:14.934Z,81.71
2017-08-10T11:48:15.016Z,82.37
2017-08-10T11:49:15.017Z,83.65
2017-08-10T11:50:14.996Z,83.40
2017-08-10T11:51:14.963Z,82.32
2017-08-10T11:52:15.016Z,82.88
2017-08-10T11:53:14.945Z,85.19
2017-08-10T11:54:15.004Z,84.34
2017-08-10T11:55:15.018Z,84.23
2017-08-10T11:56:14.928Z,84.55
2017-08-10T11:57:14.967Z,85.05
2017-08-10T11:58:15.015Z,86.49
2017-08-10T11:59:14.999Z,85.48
2017-08-10T12:00:14.934Z,83.91
2017-08-10T12:01:14.921Z,84.79
2017-08-10T12:02:14.954Z,85.08
2017-08-10T12:03:14.987Z,85.24
2017-08-10T12:04:14.991Z,83.65
2017-08-10T12:05:14.924Z,84.50
2017-08-10T12:06:14.959Z,85.11
2017-08-10T12:07:14.987Z,84.68
2017-08-10T12:08:14.929Z,85.35
2017-08-10T12:09:14.932Z,83.57
2017-08-10T12:10:14.927Z,83.65
2017-08-10T12:11:15.004Z,84.09
2017-08-10T12:12:14.977Z,85.16
2017-08-10T12:13:15.003Z,84.79
2017-08-10T12:14:15.035Z,85.38
2017-08-10T12:15:15.004Z,84.07
2017-08-10T12:16:15.025Z,85.64
2017-08-10T12:17:15.007Z,84.50
2017-08-10T12:18:15.004Z,85.93
2017-08-10T12:19:15.009Z,84.15
2017-08-10T12:20:15.090Z,86.01
2017-08-10T12:21:15.033Z,85.00
2017-08-10T12:22:15.011Z,84.74
2017-08-10T12:23:14.983Z,84.44
2017-08-10T12:24:15.032Z,85.35
2017-08-10T12:25:14.972Z,85.91
2017-08-10T12:26:14.976Z,85.93
2017-08-10T12:27:14.951Z,84.36
2017-08-10T12:28:14.982Z,84.74
2017-08-10T12:29:14.985Z,83.25
2017-08-10T12:30:15.004Z,83.91
2017-08-10T12:31:15.001Z,85.16
2017-08-10T12:32:14.946Z,83.75
2017-08-10T12:33:14.987Z,84.15
2017-08-10T12:34:14.981Z,83.70
2017-08-10T12:35:15.016Z,84.31
2017-08-10T12:36:14.985Z,82.77
2017-08-10T12:37:14.956Z,85.38
2017-08-10T12:38:15.014Z,83.38
2017-08-10T12:39:15.049Z,84.60
2017-08-10T12:40:15.017Z,82.96
2017-08-10T12:41:15.028Z,82.14
2017-08-10T12:42:14.982Z,82.29
2017-08-10T12:43:14.998Z,83.17
2017-08-10T12:44:14.961Z,84.42
2017-08-10T12:45:14.978Z,83.94
2017-08-10T12:46:14.984Z,84.47
2017-08-10T12:47:14.990Z,84.26
2017-08-10T12:48:15.055Z,83.12
2017-08-10T12:49:14.965Z,82.32
2017-08-10T12:50:14.986Z,83.75
2017-08-10T12:51:14.988Z,83.65
2017-08-10T12:52:15.057Z,85.58
2017-08-10T12:53:14.967Z,83.57